createdAt,value
2022-08-11T00:01:53.864Z,44.50
2022-08-11T00:04:24.468Z,45.39
2022-08-11T00:06:52.335Z,45.62
2022-08-11T00:09:24.175Z,46.27
2022-08-11T00:11:58.434Z,46.18
2022-08-11T00:14:36.904Z,46.06
2022-08-11T00:17:12.000Z,46.35
2022-08-11T00:20:14.038Z,46.59
2022-08-11T00:22:30.127Z,45.62
2022-08-11T00:25:02.210Z,46.54
2022-08-11T00:27:36.600Z,46.84
2022-08-11T00:30:05.680Z,46.64
2022-08-11T00:32:33.484Z,45.50
2022-08-11T00:35:51.317Z,46.88
2022-08-11T00:37:50.671Z,46.76
2022-08-11T00:40:50.695Z,47.10
2022-08-11T00:43:22.226Z,47.47
2022-08-11T00:46:18.608Z,47.63
2022-08-11T00:49:11.969Z,47.88
2022-08-11T00:52:16.093Z,47.83
2022-08-11T00:55:04.331Z,48.11
2022-08-11T00:57:39.682Z,47.54
2022-08-11T01:00:13.331Z,45.90
2022-08-11T01:03:10.588Z,47.75
2022-08-11T01:05:51.562Z,47.26
2022-08-11T01:08:27.077Z,48.20
2022-08-11T01:11:55.241Z,48.40
2022-08-11T01:14:46.840Z,46.88
2022-08-11T01:17:35.733Z,47.58
2022-08-11T01:20:46.774Z,47.78
2022-08-11T01:23:31.455Z,47.97
2022-08-11T01:26:43.125Z,48.63
2022-08-11T01:29:37.262Z,49.70
2022-08-11T01:32:06.616Z,48.06
2022-08-11T01:34:58.342Z,49.11
2022-08-11T01:37:59.175Z,48.23
2022-08-11T01:40:25.689Z,48.15
2022-08-11T01:43:13.875Z,47.21
2022-08-11T01:45:57.292Z,49.14
2022-08-11T01:48:35.877Z,49.28
2022-08-11T01:51:17.113Z,49.85
2022-08-11T01:53:43.946Z,50.38
2022-08-11T01:56:19.250Z,49.32
2022-08-11T01:58:54.361Z,49.94
2022-08-11T02:01:44.432Z,50.76
2022-08-11T02:04:29.409Z,48.88
2022-08-11T02:07:21.448Z,50.77
2022-08-11T02:09:49.596Z,47.72
2022-08-11T02:12:27.256Z,47.53
2022-08-11T02:15:14.251Z,44.13
2022-08-11T02:17:46.820Z,42.24
2022-08-11T02:20:41.140Z,41.10
2022-08-11T02:24:05.387Z,39.81
2022-08-11T02:26:36.733Z,39.00
2022-08-11T02:29:24.735Z,38.13
2022-08-11T02:32:37.907Z,38.72
2022-08-11T02:35:36.742Z,38.43
2022-08-11T02:38:28.154Z,38.04
2022-08-11T02:41:41.820Z,38.33
2022-08-11T02:44:24.666Z,37.78
2022-08-11T02:47:28.140Z,37.74
2022-08-11T02:50:26.682Z,38.07
2022-08-11T02:53:06.580Z,39.40
2022-08-11T02:55:58.238Z,39.48
2022-08-11T02:58:35.462Z,38.49
2022-08-11T03:01:28.435Z,37.90
2022-08-11T03:04:03.892Z,39.32
2022-08-11T03:06:49.483Z,39.12
2022-08-11T03:09:38.433Z,38.71
2022-08-11T03:12:36.691Z,39.92
2022-08-11T03:15:37.505Z,39.33
2022-08-11T03:18:31.678Z,39.79
2022-08-11T03:21:20.937Z,39.91
2022-08-11T03:24:03.608Z,40.17
2022-08-11T03:27:11.080Z,40.51
2022-08-11T03:30:04.960Z,40.17
2022-08-11T03:33:40.844Z,40.13
2022-08-11T03:36:33.762Z,40.47
2022-08-11T03:39:24.517Z,40.75
2022-08-11T03:42:26.168Z,40.83
2022-08-11T03:45:17.788Z,41.08
2022-08-11T03:48:19.741Z,41.47
2022-08-11T03:51:06.353Z,41.77
2022-08-11T03:53:55.949Z,42.45
2022-08-11T03:56:57.746Z,42.59
2022-08-11T03:59:51.232Z,42.84
2022-08-11T04:02:54.928Z,43.40
2022-08-11T04:05:56.982Z,42.54
2022-08-11T04:09:05.319Z,43.01
2022-08-11T04:11:37.939Z,41.95
2022-08-11T04:15:08.303Z,41.79
2022-08-11T04:17:40.565Z,41.91
2022-08-11T04:20:16.685Z,41.92
2022-08-11T04:23:11.866Z,42.03
2022-08-11T04:26:27.007Z,42.29
2022-08-11T04:29:20.772Z,42.06
2022-08-11T04:32:05.931Z,42.10
2022-08-11T04:34:55.661Z,41.86
2022-08-11T04:37:53.365Z,42.08
2022-08-11T04:40:57.688Z,42.36
2022-08-11T04:44:05.445Z,42.17
2022-08-11T04:47:07.675Z,41.51
2022-08-11T04:50:24.972Z,41.55
2022-08-11T04:53:19.175Z,41.97
2022-08-11T04:56:30.305Z,42.14
2022-08-11T04:59:36.999Z,42.24
2022-08-11T05:02:22.207Z,41.50
2022-08-11T05:05:25.932Z,41.85
2022-08-11T05:08:08.676Z,41.49
2022-08-11T05:11:12.915Z,41.59
2022-08-11T05:14:05.134Z,41.10
2022-08-11T05:17:00.138Z,41.18
2022-08-11T05:20:02.204Z,40.75
2022-08-11T05:22:48.962Z,39.77
2022-08-11T05:26:43.267Z,38.89
2022-08-11T05:28:46.824Z,38.75
2022-08-11T05:31:34.149Z,36.89
2022-08-11T05:34:30.031Z,37.45
2022-08-11T05:37:34.405Z,37.61
2022-08-11T05:40:29.196Z,38.01
2022-08-11T05:43:18.183Z,39.16
2022-08-11T05:46:14.572Z,39.36
2022-08-11T05:49:00.354Z,37.60
2022-08-11T05:51:55.254Z,35.52
2022-08-11T05:54:46.652Z,35.20
2022-08-11T05:57:45.450Z,33.80
2022-08-11T06:00:19.471Z,35.33
2022-08-11T06:02:51.198Z,34.73
2022-08-11T06:05:19.624Z,32.86
2022-08-11T06:07:49.979Z,32.65
2022-08-11T06:10:34.936Z,31.19
2022-08-11T06:13:02.386Z,34.07
2022-08-11T06:15:34.192Z,30.15
2022-08-11T06:18:02.953Z,32.56
2022-08-11T06:20:37.425Z,29.48
2022-08-11T06:23:06.816Z,35.02
2022-08-11T06:25:35.859Z,30.92
2022-08-11T06:28:07.488Z,29.59
2022-08-11T06:30:42.420Z,28.64
2022-08-11T06:33:29.564Z,28.64
2022-08-11T06:36:11.088Z,25.60
2022-08-11T06:38:57.178Z,25.60
2022-08-11T06:41:30.424Z,24.79
2022-08-11T06:44:29.255Z,24.42
2022-08-11T06:47:04.377Z,25.96
2022-08-11T06:49:56.409Z,24.73
2022-08-11T06:52:34.468Z,24.23
2022-08-11T06:55:57.752Z,24.73
2022-08-11T06:59:11.241Z,27.63
2022-08-11T07:02:03.459Z,24.62
2022-08-11T07:04:43.162Z,24.27
2022-08-11T07:07:59.659Z,24.08
2022-08-11T07:11:23.439Z,23.16
2022-08-11T07:14:12.916Z,23.32
2022-08-11T07:16:44.438Z,22.43
2022-08-11T07:19:33.371Z,23.30
2022-08-11T07:22:23.245Z,23.23
2022-08-11T07:25:18.250Z,22.50
2022-08-11T07:28:07.525Z,22.58
2022-08-11T07:30:39.775Z,21.78
2022-08-11T07:33:07.340Z,22.36
2022-08-11T07:35:42.630Z,21.97
2022-08-11T07:38:22.652Z,24.07
2022-08-11T07:40:52.005Z,23.34
2022-08-11T07:43:18.722Z,22.56
2022-08-11T07:46:05.220Z,22.84
2022-08-11T07:48:53.089Z,22.09
2022-08-11T07:51:39.523Z,24.97
2022-08-11T07:54:16.331Z,23.11
2022-08-11T07:56:55.012Z,23.96
2022-08-11T08:00:03.453Z,24.21
2022-08-11T08:02:48.813Z,24.02
2022-08-11T08:05:36.172Z,24.54
2022-08-11T08:08:21.639Z,22.79
2022-08-11T08:11:06.957Z,21.78
2022-08-11T08:13:54.084Z,22.11
2022-08-11T08:16:39.983Z,22.35
2022-08-11T08:19:07.018Z,21.54
2022-08-11T08:21:33.864Z,23.13
2022-08-11T08:24:01.081Z,20.51
2022-08-11T08:26:48.269Z,21.85
2022-08-11T08:29:38.656Z,19.72
2022-08-11T08:32:06.952Z,20.86
2022-08-11T08:34:36.805Z,19.18
2022-08-11T08:37:15.688Z,18.98
2022-08-11T08:39:53.384Z,18.80
2022-08-11T08:42:24.329Z,21.27
2022-08-11T08:44:58.834Z,18.70
2022-08-11T08:47:42.076Z,19.50
2022-08-11T08:50:19.363Z,18.70
2022-08-11T08:52:54.787Z,18.85
2022-08-11T08:55:22.444Z,18.53
2022-08-11T08:57:52.665Z,18.76
2022-08-11T09:00:23.225Z,19.21
2022-08-11T09:02:51.525Z,18.32
2022-08-11T09:05:19.961Z,18.61
2022-08-11T09:07:51.088Z,17.62
2022-08-11T09:10:20.321Z,18.10
2022-08-11T09:12:48.201Z,18.16
2022-08-11T09:15:19.434Z,19.41
2022-08-11T09:17:50.409Z,17.56
2022-08-11T09:20:23.825Z,18.31
2022-08-11T09:24:07.442Z,18.66
2022-08-11T09:26:18.961Z,18.85
2022-08-11T09:28:47.113Z,18.95
2022-08-11T09:31:14.819Z,18.84
2022-08-11T09:33:44.031Z,19.68
2022-08-11T09:36:31.649Z,20.53
2022-08-11T09:39:18.964Z,20.29
2022-08-11T09:42:01.040Z,20.62
2022-08-11T09:44:50.484Z,20.84
2022-08-11T09:47:23.446Z,20.47
2022-08-11T09:49:53.739Z,20.35
2022-08-11T09:52:22.237Z,21.25
2022-08-11T09:54:50.782Z,20.32
2022-08-11T09:57:57.222Z,20.36
2022-08-11T10:00:33.096Z,21.69
2022-08-11T10:03:02.654Z,21.22
2022-08-11T10:05:48.869Z,20.16
2022-08-11T10:08:19.220Z,20.07
2022-08-11T10:10:47.585Z,20.96
2022-08-11T10:14:31.296Z,21.08
2022-08-11T10:16:15.940Z,20.90
2022-08-11T10:18:52.300Z,20.24
2022-08-11T10:21:42.344Z,21.93
2022-08-11T10:24:30.402Z,21.93
2022-08-11T10:27:02.759Z,22.30
2022-08-11T10:29:52.110Z,22.27
2022-08-11T10:32:57.283Z,21.18
2022-08-11T10:35:28.093Z,21.56
2022-08-11T10:38:07.890Z,21.11
2022-08-11T10:40:38.801Z,21.28
2022-08-11T10:43:07.556Z,22.09
2022-08-11T10:45:58.087Z,21.67
2022-08-11T10:48:27.009Z,22.64
2022-08-11T10:51:13.639Z,23.40
2022-08-11T10:54:05.199Z,23.43
2022-08-11T10:56:55.057Z,22.85
2022-08-11T10:59:27.494Z,23.34
2022-08-11T11:01:55.451Z,23.85
2022-08-11T11:04:36.070Z,24.14
2022-08-11T11:07:13.796Z,23.79
2022-08-11T11:09:54.313Z,24.15
2022-08-11T11:13:00.424Z,24.34
2022-08-11T11:15:48.434Z,24.05
2022-08-11T11:18:17.744Z,24.02
2022-08-11T11:20:47.500Z,24.23
2022-08-11T11:23:29.441Z,24.78
2022-08-11T11:26:27.421Z,23.81
2022-08-11T11:29:16.238Z,24.26
2022-08-11T11:31:53.360Z,24.51
2022-08-11T11:34:53.288Z,24.61
2022-08-11T11:37:22.794Z,24.57
2022-08-11T11:39:50.239Z,24.77
2022-08-11T11:42:18.548Z,24.59
2022-08-11T11:44:46.855Z,24.21
2022-08-11T11:47:14.441Z,24.54
2022-08-11T11:49:45.213Z,24.64
2022-08-11T11:52:19.034Z,24.97
2022-08-11T11:54:50.241Z,24.40
2022-08-11T11:57:37.658Z,24.53
2022-08-11T12:00:24.932Z,24.33
2022-08-11T12:03:07.772Z,24.39
2022-08-11T12:05:36.226Z,23.99
2022-08-11T12:08:13.137Z,24.59
2022-08-11T12:11:11.271Z,24.05
2022-08-11T12:13:45.952Z,23.59
2022-08-11T12:16:34.633Z,23.69
2022-08-11T12:19:06.624Z,24.25
2022-08-11T12:21:36.060Z,24.24
2022-08-11T12:24:21.910Z,24.20
2022-08-11T12:26:54.381Z,24.41
2022-08-11T12:29:36.448Z,24.41
2022-08-11T12:32:08.984Z,24.57
2022-08-11T12:34:36.575Z,25.03
2022-08-11T12:37:13.516Z,24.82
2022-08-11T12:40:42.223Z,24.68
2022-08-11T12:43:24.338Z,25.74
2022-08-11T12:46:08.103Z,24.66
2022-08-11T12:49:03.587Z,25.10
2022-08-11T12:52:12.417Z,26.06
2022-08-11T12:55:38.753Z,25.06
2022-08-11T12:58:17.075Z,24.75
2022-08-11T13:01:03.655Z,24.67
2022-08-11T13:03:52.376Z,24.92
2022-08-11T13:06:25.098Z,25.13
2022-08-11T13:08:53.303Z,25.77
2022-08-11T13:11:56.576Z,25.96
2022-08-11T13:14:26.082Z,25.79
2022-08-11T13:17:12.268Z,24.97
2022-08-11T13:19:44.187Z,24.55
2022-08-11T13:22:16.157Z,24.64
2022-08-11T13:24:44.175Z,24.95
2022-08-11T13:27:13.980Z,24.71
2022-08-11T13:29:42.932Z,24.78
2022-08-11T13:32:11.353Z,25.17
2022-08-11T13:34:42.312Z,24.97
2022-08-11T13:37:14.593Z,25.09
2022-08-11T13:39:47.200Z,24.32
2022-08-11T13:42:18.068Z,24.57
2022-08-11T13:44:45.397Z,24.58
2022-08-11T13:47:14.311Z,24.56
2022-08-11T13:49:42.597Z,25.23
2022-08-11T13:52:15.360Z,24.06
2022-08-11T13:54:43.145Z,24.73
2022-08-11T13:57:13.429Z,24.87
2022-08-11T13:59:51.954Z,25.00
2022-08-11T14:02:29.251Z,24.75
2022-08-11T14:05:07.123Z,25.12
2022-08-11T14:07:46.379Z,25.34
2022-08-11T14:10:14.935Z,24.65
2022-08-11T14:13:06.491Z,24.51
2022-08-11T14:15:35.083Z,24.87
2022-08-11T14:18:17.132Z,24.88
2022-08-11T14:21:03.188Z,24.95
2022-08-11T14:23:35.971Z,24.71
2022-08-11T14:26:21.885Z,24.73
2022-08-11T14:28:49.028Z,24.57
2022-08-11T14:31:16.072Z,24.67
2022-08-11T14:34:00.264Z,24.64
2022-08-11T14:36:35.925Z,24.37
2022-08-11T14:39:07.262Z,24.70
2022-08-11T14:42:10.631Z,24.48
2022-08-11T14:45:01.589Z,24.02
2022-08-11T14:47:34.480Z,24.62
2022-08-11T14:50:10.733Z,24.64
2022-08-11T14:52:51.302Z,24.12
2022-08-11T14:55:40.868Z,24.21
2022-08-11T14:58:11.081Z,24.79
2022-08-11T15:00:39.345Z,24.94
2022-08-11T15:03:10.936Z,25.13
2022-08-11T15:05:57.112Z,24.20
2022-08-11T15:08:47.941Z,23.81
2022-08-11T15:11:36.147Z,24.28
2022-08-11T15:14:06.296Z,24.55
2022-08-11T15:16:51.861Z,24.78
2022-08-11T15:19:21.158Z,24.19
2022-08-11T15:22:07.800Z,24.20
2022-08-11T15:24:36.419Z,24.36
2022-08-11T15:27:32.855Z,23.99
2022-08-11T15:30:33.020Z,24.66
2022-08-11T15:33:25.742Z,24.11
2022-08-11T15:36:12.721Z,24.08
2022-08-11T15:38:44.308Z,24.49
2022-08-11T15:41:35.996Z,24.29
2022-08-11T15:44:51.462Z,24.91
2022-08-11T15:47:20.331Z,24.98
2022-08-11T15:50:11.883Z,25.00
2022-08-11T15:52:49.743Z,24.93
2022-08-11T15:55:23.715Z,25.03
2022-08-11T15:58:12.331Z,25.68
2022-08-11T16:01:04.232Z,25.10
2022-08-11T16:04:09.520Z,24.95
2022-08-11T16:07:07.018Z,24.99
2022-08-11T16:09:47.420Z,25.37
2022-08-11T16:13:03.147Z,24.99
2022-08-11T16:15:50.560Z,25.08
2022-08-11T16:18:21.020Z,25.38
2022-08-11T16:20:55.391Z,25.30
2022-08-11T16:23:26.528Z,25.30
2022-08-11T16:27:04.996Z,25.22
2022-08-11T16:28:44.388Z,25.77
2022-08-11T16:31:12.681Z,25.68
2022-08-11T16:33:50.082Z,25.39
2022-08-11T16:36:37.592Z,25.61
2022-08-11T16:39:05.530Z,26.05
2022-08-11T16:41:52.231Z,25.33
2022-08-11T16:44:39.303Z,25.45
2022-08-11T16:47:08.522Z,26.22
2022-08-11T16:49:40.167Z,25.81
2022-08-11T16:52:12.013Z,26.44
2022-08-11T16:54:40.315Z,26.72
2022-08-11T16:57:34.410Z,27.41
2022-08-11T17:00:08.119Z,27.13
2022-08-11T17:03:01.162Z,27.17
2022-08-11T17:05:53.750Z,27.54
2022-08-11T17:08:54.223Z,27.16
2022-08-11T17:11:46.017Z,26.71
2022-08-11T17:14:35.276Z,26.94
2022-08-11T17:17:06.168Z,27.36
2022-08-11T17:20:40.712Z,27.56
2022-08-11T17:22:41.732Z,27.57
2022-08-11T17:25:11.660Z,27.73
2022-08-11T17:27:39.096Z,27.92
2022-08-11T17:30:07.791Z,28.00
2022-08-11T17:33:00.498Z,28.24
2022-08-11T17:35:35.914Z,28.67
2022-08-11T17:38:10.155Z,28.49
2022-08-11T17:40:39.049Z,28.52
2022-08-11T17:43:28.478Z,29.02
2022-08-11T17:46:05.203Z,29.07
2022-08-11T17:48:53.150Z,29.38
2022-08-11T17:51:39.484Z,29.04
2022-08-11T17:54:27.629Z,29.67
2022-08-11T17:57:21.104Z,29.88
2022-08-11T17:59:53.971Z,29.64
2022-08-11T18:02:44.672Z,30.17
2022-08-11T18:05:20.326Z,30.04
2022-08-11T18:08:08.892Z,30.41
2022-08-11T18:10:55.015Z,30.55
2022-08-11T18:13:42.050Z,30.17
2022-08-11T18:16:27.953Z,29.38
2022-08-11T18:19:13.937Z,29.54
2022-08-11T18:22:15.180Z,30.71
2022-08-11T18:25:09.021Z,31.45
2022-08-11T18:27:56.879Z,30.00
2022-08-11T18:30:42.869Z,32.11
2022-08-11T18:34:05.427Z,29.96
2022-08-11T18:36:40.296Z,30.53
2022-08-11T18:39:29.259Z,31.74
2022-08-11T18:42:29.733Z,31.97
2022-08-11T18:45:19.659Z,30.10
2022-08-11T18:48:11.351Z,30.42
2022-08-11T18:51:29.665Z,30.67
2022-08-11T18:54:07.938Z,30.98
2022-08-11T18:56:54.357Z,30.56
2022-08-11T18:59:44.236Z,30.58
2022-08-11T19:02:32.126Z,30.52
2022-08-11T19:06:06.239Z,31.36
2022-08-11T19:08:34.765Z,32.54
2022-08-11T19:11:19.950Z,32.69
2022-08-11T19:14:09.611Z,32.52
2022-08-11T19:16:56.707Z,33.48
2022-08-11T19:19:47.212Z,32.05
2022-08-11T19:22:33.493Z,31.94
2022-08-11T19:25:25.179Z,33.09
2022-08-11T19:28:13.251Z,34.47
2022-08-11T19:30:59.096Z,32.79
2022-08-11T19:33:59.994Z,34.45
2022-08-11T19:36:50.095Z,35.02
2022-08-11T19:39:36.185Z,33.74
2022-08-11T19:42:22.412Z,35.36
2022-08-11T19:45:08.355Z,35.94
2022-08-11T19:48:08.240Z,35.44
2022-08-11T19:51:01.244Z,34.91
2022-08-11T19:53:49.532Z,34.42
2022-08-11T19:56:36.064Z,34.46
2022-08-11T19:59:22.449Z,34.52
2022-08-11T20:02:13.628Z,34.07
2022-08-11T20:05:00.010Z,34.58
2022-08-11T20:07:47.521Z,34.64
2022-08-11T20:10:38.324Z,34.18
2022-08-11T20:13:27.070Z,34.99
2022-08-11T20:16:14.411Z,34.75
2022-08-11T20:19:00.797Z,34.64
2022-08-11T20:21:47.414Z,34.47
2022-08-11T20:24:36.093Z,34.35
2022-08-11T20:27:24.970Z,33.97
2022-08-11T20:30:12.570Z,33.65
2022-08-11T20:32:59.716Z,33.26
2022-08-11T20:35:45.645Z,33.67
2022-08-11T20:38:32.728Z,34.00
2022-08-11T20:41:20.255Z,33.75
2022-08-11T20:44:09.433Z,33.58
2022-08-11T20:46:59.899Z,34.69
2022-08-11T20:49:56.595Z,34.24
2022-08-11T20:52:48.830Z,35.68
2022-08-11T20:55:51.230Z,35.99
2022-08-11T21:01:45.300Z,36.27
2022-08-11T21:04:30.839Z,38.55
2022-08-11T21:07:28.481Z,38.54
2022-08-11T21:10:23.133Z,37.79
2022-08-11T21:13:25.706Z,37.89
2022-08-11T21:16:26.543Z,37.59
2022-08-11T21:20:01.153Z,38.06
2022-08-11T21:22:59.657Z,35.96
2022-08-11T21:26:05.865Z,36.50
2022-08-11T21:28:53.272Z,35.72
2022-08-11T21:31:40.299Z,36.11
2022-08-11T21:34:29.401Z,35.88
2022-08-11T21:37:16.000Z,35.58
2022-08-11T21:40:03.457Z,35.83
2022-08-11T21:42:57.282Z,35.72
2022-08-11T21:45:44.057Z,36.92
2022-08-11T21:48:30.992Z,36.91
2022-08-11T21:51:17.103Z,36.55
2022-08-11T21:54:02.859Z,35.42
2022-08-11T21:56:51.840Z,35.76
2022-08-11T21:59:54.296Z,39.10
2022-08-11T22:02:40.395Z,38.71
2022-08-11T22:05:26.769Z,37.58
2022-08-11T22:08:12.137Z,40.92
2022-08-11T22:10:58.149Z,43.25
2022-08-11T22:13:43.416Z,46.79
2022-08-11T22:16:48.440Z,46.69
2022-08-11T22:19:35.431Z,46.58
2022-08-11T22:22:21.293Z,47.42
2022-08-11T22:25:16.638Z,48.77
2022-08-11T22:28:04.027Z,54.09
2022-08-11T22:30:49.351Z,56.25
2022-08-11T22:33:35.233Z,55.94
2022-08-11T22:36:22.868Z,54.10
2022-08-11T22:39:09.359Z,52.84
2022-08-11T22:41:55.060Z,54.51
2022-08-11T22:44:40.365Z,59.03
2022-08-11T22:47:30.240Z,53.99
2022-08-11T22:50:26.677Z,60.89
2022-08-11T22:53:13.561Z,57.07
2022-08-11T22:55:59.591Z,54.07
2022-08-11T22:58:45.425Z,56.08
2022-08-11T23:01:35.559Z,59.35
2022-08-11T23:04:21.869Z,56.90
2022-08-11T23:07:08.135Z,58.37
2022-08-11T23:09:53.433Z,58.95
2022-08-11T23:12:39.072Z,57.74
2022-08-11T23:15:26.667Z,55.02
2022-08-11T23:18:12.378Z,55.61
2022-08-11T23:20:59.225Z,58.52
2022-08-11T23:23:47.434Z,54.85
2022-08-11T23:26:34.805Z,54.84
2022-08-11T23:29:21.272Z,59.73
2022-08-11T23:32:09.641Z,54.93
2022-08-11T23:35:04.849Z,55.28
2022-08-11T23:38:03.392Z,57.76
2022-08-11T23:40:48.850Z,60.10
2022-08-11T23:43:41.489Z,60.19
2022-08-11T23:46:26.789Z,56.19
2022-08-11T23:49:15.653Z,55.25
2022-08-11T23:52:02.127Z,55.37
2022-08-11T23:54:47.920Z,57.11
2022-08-11T23:57:33.340Z,62.25
